sensor_id;sensor_type;location;lat;lon;timestamp;pressure;altitude;pressure_sealevel;temperature;humidity
56825;BME280;42705;50.326;18.772;2023-02-17T00:03:05;99048.42;;;1.01;72.61
56825;BME280;42705;50.326;18.772;2023-02-17T00:08:34;99052.08;;;1.05;72.74
56825;BME280;42705;50.326;18.772;2023-02-17T00:13:56;99050.04;;;0.95;72.47
56825;BME280;42705;50.326;18.772;2023-02-17T00:19:17;99043.64;;;0.92;72.41
56825;BME280;42705;50.326;18.772;2023-02-17T00:24:45;99045.65;;;0.89;72.53
56825;BME280;42705;50.326;18.772;2023-02-17T00:30:07;99039.20;;;0.83;72.77
56825;BME280;42705;50.326;18.772;2023-02-17T00:35:29;99041.26;;;0.75;72.72
56825;BME280;42705;50.326;18.772;2023-02-17T00:40:50;99039.48;;;0.76;73.04
56825;BME280;42705;50.326;18.772;2023-02-17T00:46:12;99036.34;;;0.77;73.33
56825;BME280;42705;50.326;18.772;2023-02-17T00:51:33;99019.20;;;0.80;73.62
56825;BME280;42705;50.326;18.772;2023-02-17T00:56:54;99010.52;;;0.86;73.27
56825;BME280;42705;50.326;18.772;2023-02-17T01:02:17;99013.61;;;0.86;73.09
56825;BME280;42705;50.326;18.772;2023-02-17T01:07:39;99024.26;;;0.74;73.11
56825;BME280;42705;50.326;18.772;2023-02-17T01:13:01;99021.53;;;0.65;73.12
56825;BME280;42705;50.326;18.772;2023-02-17T01:18:23;99013.29;;;0.61;73.47
56825;BME280;42705;50.326;18.772;2023-02-17T01:23:51;99011.30;;;0.54;73.62
56825;BME280;42705;50.326;18.772;2023-02-17T01:29:12;99009.55;;;0.47;73.82
56825;BME280;42705;50.326;18.772;2023-02-17T01:34:34;99013.14;;;0.47;73.69
56825;BME280;42705;50.326;18.772;2023-02-17T01:39:55;99007.70;;;0.42;73.77
56825;BME280;42705;50.326;18.772;2023-02-17T01:50:45;99014.67;;;0.34;74.14
56825;BME280;42705;50.326;18.772;2023-02-17T01:56:09;99009.71;;;0.34;74.23
56825;BME280;42705;50.326;18.772;2023-02-17T02:01:32;99006.58;;;0.31;74.19
56825;BME280;42705;50.326;18.772;2023-02-17T02:06:54;99012.10;;;0.30;74.22
56825;BME280;42705;50.326;18.772;2023-02-17T02:12:23;98997.70;;;0.30;74.57
56825;BME280;42705;50.326;18.772;2023-02-17T02:18:23;98997.52;;;0.30;74.49
56825;BME280;42705;50.326;18.772;2023-02-17T02:29:31;98981.23;;;0.38;74.62
56825;BME280;42705;50.326;18.772;2023-02-17T02:40:28;98965.48;;;0.48;74.49
56825;BME280;42705;50.326;18.772;2023-02-17T02:45:49;98962.19;;;0.58;74.63
56825;BME280;42705;50.326;18.772;2023-02-17T03:02:38;98959.94;;;0.54;74.57
56825;BME280;42705;50.326;18.772;2023-02-17T03:13:28;98943.44;;;0.50;74.50
56825;BME280;42705;50.326;18.772;2023-02-17T03:18:49;98939.59;;;0.55;74.39
56825;BME280;42705;50.326;18.772;2023-02-17T03:24:11;98935.79;;;0.56;74.44
56825;BME280;42705;50.326;18.772;2023-02-17T03:29:32;98934.83;;;0.63;74.80
56825;BME280;42705;50.326;18.772;2023-02-17T03:34:53;98928.30;;;0.70;74.53
56825;BME280;42705;50.326;18.772;2023-02-17T03:40:15;98934.00;;;0.78;74.48
56825;BME280;42705;50.326;18.772;2023-02-17T03:45:36;98931.13;;;0.84;74.76
56825;BME280;42705;50.326;18.772;2023-02-17T03:50:58;98925.38;;;0.87;74.16
56825;BME280;42705;50.326;18.772;2023-02-17T03:56:19;98916.19;;;0.96;74.35
56825;BME280;42705;50.326;18.772;2023-02-17T04:01:40;98911.65;;;1.02;74.16
56825;BME280;42705;50.326;18.772;2023-02-17T04:07:02;98914.59;;;1.05;74.14
56825;BME280;42705;50.326;18.772;2023-02-17T04:12:23;98913.09;;;1.12;74.16
56825;BME280;42705;50.326;18.772;2023-02-17T04:17:47;98908.30;;;1.23;74.11
56825;BME280;42705;50.326;18.772;2023-02-17T04:28:41;98900.04;;;1.30;73.77
56825;BME280;42705;50.326;18.772;2023-02-17T04:34:02;98906.34;;;1.39;73.79
56825;BME280;42705;50.326;18.772;2023-02-17T04:39:24;98907.10;;;1.49;73.96
56825;BME280;42705;50.326;18.772;2023-02-17T04:44:45;98909.27;;;1.50;73.58
56825;BME280;42705;50.326;18.772;2023-02-17T04:50:07;98901.08;;;1.49;73.60
56825;BME280;42705;50.326;18.772;2023-02-17T04:55:30;98892.77;;;1.50;73.73
56825;BME280;42705;50.326;18.772;2023-02-17T05:00:51;98880.81;;;1.52;73.72
56825;BME280;42705;50.326;18.772;2023-02-17T05:06:13;98870.64;;;1.52;73.97
56825;BME280;42705;50.326;18.772;2023-02-17T05:11:34;98871.67;;;1.59;73.74
56825;BME280;42705;50.326;18.772;2023-02-17T05:16:55;98870.56;;;1.61;73.97
56825;BME280;42705;50.326;18.772;2023-02-17T05:22:17;98864.46;;;1.59;73.85
56825;BME280;42705;50.326;18.772;2023-02-17T05:27:39;98864.45;;;1.59;73.64
56825;BME280;42705;50.326;18.772;2023-02-17T05:33:00;98859.86;;;1.62;74.12
56825;BME280;42705;50.326;18.772;2023-02-17T05:38:21;98864.04;;;1.64;73.74
56825;BME280;42705;50.326;18.772;2023-02-17T05:43:43;98862.25;;;1.73;73.98
56825;BME280;42705;50.326;18.772;2023-02-17T05:49:09;98865.75;;;1.83;73.90
56825;BME280;42705;50.326;18.772;2023-02-17T05:54:30;98862.16;;;1.89;73.88
56825;BME280;42705;50.326;18.772;2023-02-17T05:59:52;98861.66;;;1.96;74.01
56825;BME280;42705;50.326;18.772;2023-02-17T06:05:13;98852.86;;;2.03;73.99
56825;BME280;42705;50.326;18.772;2023-02-17T06:10:35;98841.59;;;2.12;74.08
56825;BME280;42705;50.326;18.772;2023-02-17T06:15:56;98844.95;;;2.13;73.68
56825;BME280;42705;50.326;18.772;2023-02-17T06:21:18;98837.77;;;2.19;73.69
56825;BME280;42705;50.326;18.772;2023-02-17T06:26:39;98831.86;;;2.27;73.64
56825;BME280;42705;50.326;18.772;2023-02-17T06:32:01;98833.20;;;2.31;73.60
56825;BME280;42705;50.326;18.772;2023-02-17T06:37:22;98824.92;;;2.38;73.65
56825;BME280;42705;50.326;18.772;2023-02-17T06:42:43;98818.54;;;2.48;73.53
56825;BME280;42705;50.326;18.772;2023-02-17T06:48:05;98826.83;;;2.58;73.47
56825;BME280;42705;50.326;18.772;2023-02-17T06:53:26;98820.47;;;2.64;73.51
56825;BME280;42705;50.326;18.772;2023-02-17T06:58:48;98808.40;;;2.77;73.41
56825;BME280;42705;50.326;18.772;2023-02-17T07:04:09;98811.00;;;2.87;73.25
56825;BME280;42705;50.326;18.772;2023-02-17T07:09:31;98818.92;;;2.94;73.15
56825;BME280;42705;50.326;18.772;2023-02-17T07:14:52;98826.20;;;3.03;73.38
56825;BME280;42705;50.326;18.772;2023-02-17T07:20:13;98825.20;;;3.15;72.96
56825;BME280;42705;50.326;18.772;2023-02-17T07:25:34;98819.98;;;3.29;72.78
56825;BME280;42705;50.326;18.772;2023-02-17T07:30:56;98821.01;;;3.35;72.68
56825;BME280;42705;50.326;18.772;2023-02-17T07:36:17;98826.48;;;3.49;72.71
56825;BME280;42705;50.326;18.772;2023-02-17T07:41:39;98825.95;;;3.61;72.76
56825;BME280;42705;50.326;18.772;2023-02-17T07:47:03;98809.67;;;3.65;72.51
56825;BME280;42705;50.326;18.772;2023-02-17T07:52:25;98808.94;;;3.66;72.42
56825;BME280;42705;50.326;18.772;2023-02-17T07:57:46;98807.77;;;3.71;72.40
56825;BME280;42705;50.326;18.772;2023-02-17T08:03:07;98797.83;;;3.79;72.26
56825;BME280;42705;50.326;18.772;2023-02-17T08:08:30;98790.54;;;3.86;72.27
56825;BME280;42705;50.326;18.772;2023-02-17T08:14:10;98789.22;;;3.88;72.02
56825;BME280;42705;50.326;18.772;2023-02-17T08:19:32;98780.77;;;3.90;71.93
56825;BME280;42705;50.326;18.772;2023-02-17T08:24:53;98776.91;;;3.97;71.79
56825;BME280;42705;50.326;18.772;2023-02-17T08:30:14;98775.77;;;3.99;71.91
56825;BME280;42705;50.326;18.772;2023-02-17T08:35:35;98789.86;;;4.01;71.91
56825;BME280;42705;50.326;18.772;2023-02-17T08:40:57;98794.06;;;4.09;72.09
56825;BME280;42705;50.326;18.772;2023-02-17T08:46:18;98784.38;;;4.17;71.79
56825;BME280;42705;50.326;18.772;2023-02-17T08:51:40;98776.77;;;4.27;71.90
56825;BME280;42705;50.326;18.772;2023-02-17T08:57:02;98782.30;;;4.41;71.89
56825;BME280;42705;50.326;18.772;2023-02-17T09:02:23;98782.48;;;4.47;71.88
56825;BME280;42705;50.326;18.772;2023-02-17T09:07:45;98790.41;;;4.50;72.09
56825;BME280;42705;50.326;18.772;2023-02-17T09:13:06;98784.55;;;4.58;71.87
56825;BME280;42705;50.326;18.772;2023-02-17T09:18:27;98782.65;;;4.67;71.85
56825;BME280;42705;50.326;18.772;2023-02-17T09:23:49;98783.60;;;4.65;71.85
56825;BME280;42705;50.326;18.772;2023-02-17T09:29:10;98774.58;;;4.60;71.87
56825;BME280;42705;50.326;18.772;2023-02-17T09:34:34;98766.48;;;4.59;71.95
56825;BME280;42705;50.326;18.772;2023-02-17T09:39:56;98762.52;;;4.59;71.91
56825;BME280;42705;50.326;18.772;2023-02-17T09:45:23;98761.36;;;4.58;71.96
56825;BME280;42705;50.326;18.772;2023-02-17T09:56:21;98772.52;;;4.51;72.78
56825;BME280;42705;50.326;18.772;2023-02-17T10:01:45;98775.94;;;4.49;72.89
56825;BME280;42705;50.326;18.772;2023-02-17T10:07:24;98779.52;;;4.52;73.20
56825;BME280;42705;50.326;18.772;2023-02-17T10:12:55;98771.30;;;4.54;73.36
56825;BME280;42705;50.326;18.772;2023-02-17T10:18:23;98765.75;;;4.57;73.42
56825;BME280;42705;50.326;18.772;2023-02-17T10:23:48;98754.98;;;4.63;73.40
56825;BME280;42705;50.326;18.772;2023-02-17T10:35:01;98743.55;;;4.75;73.23
56825;BME280;42705;50.326;18.772;2023-02-17T10:40:26;98728.45;;;4.76;73.15
56825;BME280;42705;50.326;18.772;2023-02-17T10:45:47;98721.16;;;4.76;72.94
56825;BME280;42705;50.326;18.772;2023-02-17T10:51:16;98708.31;;;4.80;73.20
56825;BME280;42705;50.326;18.772;2023-02-17T10:56:42;98702.83;;;4.82;73.18
56825;BME280;42705;50.326;18.772;2023-02-17T11:08:05;98669.21;;;4.96;73.25
56825;BME280;42705;50.326;18.772;2023-02-17T11:13:34;98656.48;;;5.08;73.01
56825;BME280;42705;50.326;18.772;2023-02-17T11:18:56;98643.00;;;5.13;72.70
56825;BME280;42705;50.326;18.772;2023-02-17T11:24:18;98635.40;;;5.21;72.69
56825;BME280;42705;50.326;18.772;2023-02-17T11:29:40;98633.79;;;5.24;72.54
56825;BME280;42705;50.326;18.772;2023-02-17T11:35:01;98632.43;;;5.27;72.48
56825;BME280;42705;50.326;18.772;2023-02-17T11:40:29;98625.73;;;5.26;72.50
56825;BME280;42705;50.326;18.772;2023-02-17T11:46:01;98615.66;;;5.26;72.53
56825;BME280;42705;50.326;18.772;2023-02-17T12:03:18;98599.02;;;5.21;72.56
56825;BME280;42705;50.326;18.772;2023-02-17T12:09:23;98589.41;;;5.28;72.77
56825;BME280;42705;50.326;18.772;2023-02-17T12:32:24;98573.06;;;5.36;73.13
56825;BME280;42705;50.326;18.772;2023-02-17T12:37:59;98559.57;;;5.39;73.22
56825;BME280;42705;50.326;18.772;2023-02-17T12:43:28;98545.89;;;5.39;73.26
56825;BME280;42705;50.326;18.772;2023-02-17T12:48:59;98542.87;;;5.42;73.29
56825;BME280;42705;50.326;18.772;2023-02-17T12:54:32;98530.52;;;5.43;73.38
56825;BME280;42705;50.326;18.772;2023-02-17T12:59:56;98526.45;;;5.44;73.37
56825;BME280;42705;50.326;18.772;2023-02-17T13:05:33;98513.96;;;5.47;73.53
56825;BME280;42705;50.326;18.772;2023-02-17T13:11:29;98502.94;;;5.51;73.79
56825;BME280;42705;50.326;18.772;2023-02-17T13:16:51;98493.06;;;5.62;73.77
56825;BME280;42705;50.326;18.772;2023-02-17T13:22:21;98481.91;;;5.70;73.83
56825;BME280;42705;50.326;18.772;2023-02-17T13:27:43;98475.10;;;5.78;73.93
56825;BME280;42705;50.326;18.772;2023-02-17T13:33:14;98455.91;;;5.85;73.82
56825;BME280;42705;50.326;18.772;2023-02-17T13:38:59;98451.69;;;5.98;73.85
56825;BME280;42705;50.326;18.772;2023-02-17T13:44:30;98444.02;;;6.06;73.69
56825;BME280;42705;50.326;18.772;2023-02-17T13:49:54;98437.23;;;6.11;73.48
56825;BME280;42705;50.326;18.772;2023-02-17T13:55:20;98442.41;;;6.14;73.40
56825;BME280;42705;50.326;18.772;2023-02-17T14:00:43;98436.80;;;6.17;73.40
56825;BME280;42705;50.326;18.772;2023-02-17T14:06:08;98439.11;;;6.21;73.30
56825;BME280;42705;50.326;18.772;2023-02-17T14:11:31;98425.02;;;6.21;73.29
56825;BME280;42705;50.326;18.772;2023-02-17T14:22:29;98416.99;;;6.22;73.22
56825;BME280;42705;50.326;18.772;2023-02-17T14:27:50;98404.42;;;6.19;73.33
56825;BME280;42705;50.326;18.772;2023-02-17T14:38:40;98390.35;;;6.12;73.68
56825;BME280;42705;50.326;18.772;2023-02-17T14:44:02;98376.65;;;6.07;73.89
56825;BME280;42705;50.326;18.772;2023-02-17T14:49:23;98374.85;;;6.03;74.09
56825;BME280;42705;50.326;18.772;2023-02-17T14:54:44;98366.52;;;6.01;74.28
56825;BME280;42705;50.326;18.772;2023-02-17T15:00:11;98362.21;;;5.96;74.50
56825;BME280;42705;50.326;18.772;2023-02-17T15:05:33;98349.36;;;5.93;74.83
56825;BME280;42705;50.326;18.772;2023-02-17T15:10:54;98336.13;;;5.94;75.00
56825;BME280;42705;50.326;18.772;2023-02-17T15:16:15;98327.63;;;5.94;75.05
56825;BME280;42705;50.326;18.772;2023-02-17T15:21:39;98327.45;;;5.94;75.18
56825;BME280;42705;50.326;18.772;2023-02-17T15:27:04;98306.15;;;5.94;75.30
56825;BME280;42705;50.326;18.772;2023-02-17T15:32:25;98298.02;;;5.96;75.38
56825;BME280;42705;50.326;18.772;2023-02-17T15:37:47;98285.90;;;5.98;75.30
56825;BME280;42705;50.326;18.772;2023-02-17T15:43:12;98276.10;;;6.02;74.96
56825;BME280;42705;50.326;18.772;2023-02-17T15:48:34;98263.52;;;6.06;75.19
56825;BME280;42705;50.326;18.772;2023-02-17T15:53:56;98254.66;;;6.09;74.95
56825;BME280;42705;50.326;18.772;2023-02-17T15:59:21;98257.10;;;6.13;74.99
56825;BME280;42705;50.326;18.772;2023-02-17T16:04:42;98259.92;;;6.17;74.94
56825;BME280;42705;50.326;18.772;2023-02-17T16:10:05;98255.41;;;6.19;74.89
56825;BME280;42705;50.326;18.772;2023-02-17T16:15:30;98258.13;;;6.20;74.98
56825;BME280;42705;50.326;18.772;2023-02-17T16:20:52;98244.83;;;6.24;75.07
56825;BME280;42705;50.326;18.772;2023-02-17T16:31:44;98218.71;;;6.32;75.16
56825;BME280;42705;50.326;18.772;2023-02-17T16:37:12;98207.33;;;6.36;75.16
56825;BME280;42705;50.326;18.772;2023-02-17T16:42:34;98194.67;;;6.40;74.93
56825;BME280;42705;50.326;18.772;2023-02-17T16:47:57;98194.55;;;6.46;74.78
56825;BME280;42705;50.326;18.772;2023-02-17T16:53:20;98179.30;;;6.50;74.50
56825;BME280;42705;50.326;18.772;2023-02-17T16:58:41;98173.15;;;6.54;74.55
56825;BME280;42705;50.326;18.772;2023-02-17T17:04:02;98168.95;;;6.56;74.64
56825;BME280;42705;50.326;18.772;2023-02-17T17:09:25;98168.83;;;6.60;74.55
56825;BME280;42705;50.326;18.772;2023-02-17T17:14:46;98142.33;;;6.64;74.69
56825;BME280;42705;50.326;18.772;2023-02-17T17:20:16;98144.77;;;6.71;74.59
56825;BME280;42705;50.326;18.772;2023-02-17T17:25:40;98148.88;;;6.75;74.60
56825;BME280;42705;50.326;18.772;2023-02-17T17:31:02;98156.52;;;6.82;74.86
56825;BME280;42705;50.326;18.772;2023-02-17T17:36:36;98158.86;;;6.83;74.96
56825;BME280;42705;50.326;18.772;2023-02-17T17:41:58;98162.03;;;6.85;75.26
56825;BME280;42705;50.326;18.772;2023-02-17T17:47:19;98166.23;;;6.84;75.25
56825;BME280;42705;50.326;18.772;2023-02-17T17:52:40;98163.27;;;6.85;75.37
56825;BME280;42705;50.326;18.772;2023-02-17T17:58:02;98150.25;;;6.83;75.66
56825;BME280;42705;50.326;18.772;2023-02-17T18:03:23;98149.42;;;6.77;76.09
56825;BME280;42705;50.326;18.772;2023-02-17T18:08:45;98137.98;;;6.75;76.40
56825;BME280;42705;50.326;18.772;2023-02-17T18:14:09;98152.85;;;6.74;76.96
56825;BME280;42705;50.326;18.772;2023-02-17T18:19:32;98140.20;;;6.76;77.04
56825;BME280;42705;50.326;18.772;2023-02-17T18:24:53;98137.83;;;6.77;77.39
56825;BME280;42705;50.326;18.772;2023-02-17T18:30:17;98142.69;;;6.81;77.47
56825;BME280;42705;50.326;18.772;2023-02-17T18:35:39;98143.92;;;6.84;77.61
56825;BME280;42705;50.326;18.772;2023-02-17T18:41:04;98154.22;;;6.89;77.93
56825;BME280;42705;50.326;18.772;2023-02-17T18:46:26;98151.09;;;6.96;77.97
56825;BME280;42705;50.326;18.772;2023-02-17T18:51:49;98151.36;;;7.05;77.97
56825;BME280;42705;50.326;18.772;2023-02-17T18:57:11;98149.50;;;7.14;77.86
56825;BME280;42705;50.326;18.772;2023-02-17T19:02:34;98155.86;;;7.23;77.70
56825;BME280;42705;50.326;18.772;2023-02-17T19:07:56;98153.73;;;7.32;77.77
56825;BME280;42705;50.326;18.772;2023-02-17T19:13:18;98155.77;;;7.41;77.70
56825;BME280;42705;50.326;18.772;2023-02-17T19:18:40;98154.48;;;7.50;77.38
56825;BME280;42705;50.326;18.772;2023-02-17T19:24:02;98158.42;;;7.55;77.64
56825;BME280;42705;50.326;18.772;2023-02-17T19:29:23;98165.26;;;7.59;77.40
56825;BME280;42705;50.326;18.772;2023-02-17T19:34:46;98158.87;;;7.56;77.86
56825;BME280;42705;50.326;18.772;2023-02-17T19:40:07;98149.23;;;7.55;78.03
56825;BME280;42705;50.326;18.772;2023-02-17T19:45:29;98150.38;;;7.56;78.25
56825;BME280;42705;50.326;18.772;2023-02-17T19:50:51;98154.70;;;7.58;78.20
56825;BME280;42705;50.326;18.772;2023-02-17T19:56:21;98154.75;;;7.66;78.33
56825;BME280;42705;50.326;18.772;2023-02-17T20:01:43;98146.17;;;7.75;78.07
56825;BME280;42705;50.326;18.772;2023-02-17T20:07:04;98144.46;;;7.83;78.06
56825;BME280;42705;50.326;18.772;2023-02-17T20:12:26;98138.11;;;7.92;77.87
56825;BME280;42705;50.326;18.772;2023-02-17T20:17:47;98130.84;;;7.96;77.42
56825;BME280;42705;50.326;18.772;2023-02-17T20:23:10;98123.14;;;8.03;77.32
56825;BME280;42705;50.326;18.772;2023-02-17T20:28:31;98133.09;;;8.08;77.51
56825;BME280;42705;50.326;18.772;2023-02-17T20:33:53;98123.09;;;8.14;77.30
56825;BME280;42705;50.326;18.772;2023-02-17T20:39:14;98125.95;;;8.23;76.93
56825;BME280;42705;50.326;18.772;2023-02-17T20:44:35;98113.23;;;8.29;76.63
56825;BME280;42705;50.326;18.772;2023-02-17T20:49:57;98118.95;;;8.36;76.26
56825;BME280;42705;50.326;18.772;2023-02-17T20:55:18;98103.52;;;8.39;76.29
56825;BME280;42705;50.326;18.772;2023-02-17T21:00:39;98110.80;;;8.43;76.01
56825;BME280;42705;50.326;18.772;2023-02-17T21:06:03;98108.56;;;8.49;76.25
56825;BME280;42705;50.326;18.772;2023-02-17T21:11:27;98116.81;;;8.55;76.00
56825;BME280;42705;50.326;18.772;2023-02-17T21:16:48;98108.85;;;8.60;75.79
56825;BME280;42705;50.326;18.772;2023-02-17T21:22:09;98111.46;;;8.66;75.87
56825;BME280;42705;50.326;18.772;2023-02-17T21:27:31;98118.66;;;8.69;75.56
56825;BME280;42705;50.326;18.772;2023-02-17T21:32:53;98104.17;;;8.74;75.58
56825;BME280;42705;50.326;18.772;2023-02-17T21:38:16;98111.04;;;8.75;75.34
56825;BME280;42705;50.326;18.772;2023-02-17T21:43:40;98113.75;;;8.78;74.84
56825;BME280;42705;50.326;18.772;2023-02-17T21:49:20;98106.94;;;8.80;75.15
56825;BME280;42705;50.326;18.772;2023-02-17T21:54:41;98125.85;;;8.83;74.70
56825;BME280;42705;50.326;18.772;2023-02-17T22:00:03;98154.23;;;8.89;74.79
56825;BME280;42705;50.326;18.772;2023-02-17T22:05:33;98149.94;;;8.90;74.81
56825;BME280;42705;50.326;18.772;2023-02-17T22:10:54;98157.11;;;8.95;74.69
56825;BME280;42705;50.326;18.772;2023-02-17T22:16:15;98175.35;;;8.96;74.22
56825;BME280;42705;50.326;18.772;2023-02-17T22:21:38;98152.55;;;8.94;74.85
56825;BME280;42705;50.326;18.772;2023-02-17T22:26:59;98141.09;;;8.88;74.95
56825;BME280;42705;50.326;18.772;2023-02-17T22:32:20;98142.02;;;8.77;75.51
56825;BME280;42705;50.326;18.772;2023-02-17T22:37:42;98143.77;;;8.71;75.82
56825;BME280;42705;50.326;18.772;2023-02-17T22:43:03;98138.89;;;8.65;75.99
56825;BME280;42705;50.326;18.772;2023-02-17T22:48:25;98144.14;;;8.59;76.34
56825;BME280;42705;50.326;18.772;2023-02-17T22:53:46;98147.02;;;8.51;76.55
56825;BME280;42705;50.326;18.772;2023-02-17T22:59:07;98144.21;;;8.42;76.90
56825;BME280;42705;50.326;18.772;2023-02-17T23:04:29;98155.45;;;8.34;77.15
56825;BME280;42705;50.326;18.772;2023-02-17T23:09:50;98155.60;;;8.30;77.77
56825;BME280;42705;50.326;18.772;2023-02-17T23:15:11;98139.89;;;8.29;77.84
56825;BME280;42705;50.326;18.772;2023-02-17T23:20:32;98135.13;;;8.25;78.40
56825;BME280;42705;50.326;18.772;2023-02-17T23:25:54;98142.23;;;8.24;78.30
56825;BME280;42705;50.326;18.772;2023-02-17T23:31:16;98136.66;;;8.24;78.56
56825;BME280;42705;50.326;18.772;2023-02-17T23:36:38;98128.77;;;8.22;78.66
56825;BME280;42705;50.326;18.772;2023-02-17T23:42:00;98126.42;;;8.28;78.61
56825;BME280;42705;50.326;18.772;2023-02-17T23:47:21;98129.15;;;8.32;78.69
56825;BME280;42705;50.326;18.772;2023-02-17T23:52:42;98129.41;;;8.33;78.45
56825;BME280;42705;50.326;18.772;2023-02-17T23:58:04;98130.55;;;8.37;78.14
